Briefing drone pour Jussac

Rechercher une autre localisation

Conditions de vol :


Nous sommes le : Lundi 28 novembre 2022
Il est 18:08 UTC (19:08 LT)

Lever de soleil : 06:38 UTC (07:38 LT)
Coucher de soleil : 16:38 UTC (17:38 LT)

Météo

L'essentiel des conditions de vol

VIGILANCE MÉTÉO FRANCE - Cantal (15)
Pas de vigilances particulieres
METAR de LFLW
LFLW 281800Z AUTO VRB02KT 9999 -RA FEW014/// BKN030/// OVC036/// ///CB 05/04 Q1016

Date d'émission: 28/11/2022
Heure d'émission: 18:00 UTC
Vent: Variable 2 KT (4 km/h)
Visibilité horizontale: > 10 km
Plafond :
- Peu de nuages à 1400ft (427m)
- Nuages morcelés à 3000ft (914m)
- Couvert à 3600ft (1097m)
Température: 5 °C
Point de rosée: 4 °C
Humidité: 93%
Pression (QNH): 1016 hPa
Conditions: Faible pluie
Prévision 24h pour Aurillac (5 km)
Vent : 323° pour 2 KT (7 km/h)
Temperature Maxi: 6 °C
Temperature Min: 6 °C
Humidité : 69%
Condition : Nuageux



Warning: count(): Parameter must be an array or an object that implements Countable in /homepages/6/d509196549/htdocs/droneoxygene/briefing.php on line 743
WEBCAM POUR JUSSAC

Réglementation

Voler en sécurité

CARTES AERONAUTIQUE 1/500.000
CARTE AZBA (Reseau basse altitude)
CARTES VAC (LFLW)
SUP AIP




Chargement des AIP...
NOTAM (JUSSAC + Terrain à proximité / FIR )




Chargement des NOTAMS...
CONTACT PREFECTURE 15


Avertissement : Les données mises à disposition sont indicatives. Oxygène Drone ne pourra être tenu responsable de dégâts causés aux biens et aux personnes.